Time;durP1;ratioP1;P1;durP2;ratioP2;P2;SDS_P1;SDS_P2;PMS_P1;PMS_P2;Temp;Humidity;BMP_temperature;BMP_pressure;BME280_temperature;BME280_humidity;BME280_pressure;Samples;Min_cycle;Max_cycle;Signal;HPM_P1;HPM_P2
2023/05/14 00:02:01;;;;;;;37.13;33.63;;;;;;;21.01;44.12;95500.59;6128274;22;109019;-63
2023/05/14 00:05:05;;;;;;;36.60;33.10;;;;;;;20.99;44.08;95499.28;6094200;28;109713;-63
2023/05/14 00:08:08;;;;;;;36.43;33.10;;;;;;;21.00;43.96;95492.88;6110954;28;109234;-63
2023/05/14 00:11:13;;;;;;;36.53;33.43;;;;;;;21.00;43.76;95487.56;6113004;28;108936;-63
2023/05/14 00:14:16;;;;;;;37.83;34.23;;;;;;;20.99;44.27;95493.94;6106544;28;109123;-63
2023/05/14 00:17:19;;;;;;;37.73;34.50;;;;;;;20.97;43.96;95494.25;6107093;28;108881;-63
2023/05/14 00:20:22;;;;;;;38.10;34.30;;;;;;;20.94;43.91;95481.53;6113065;28;108853;-63
2023/05/14 00:23:25;;;;;;;38.17;34.67;;;;;;;20.97;44.05;95488.13;6112929;28;108842;-63
2023/05/14 00:26:30;;;;;;;37.50;34.20;;;;;;;20.97;43.63;95477.50;6101967;28;111147;-63
2023/05/14 00:29:33;;;;;;;37.13;33.77;;;;;;;20.97;43.61;95485.47;6112686;28;108996;-65
2023/05/14 00:32:36;;;;;;;39.50;35.63;;;;;;;20.96;44.21;95470.59;6118010;28;110972;-63
2023/05/14 00:35:39;;;;;;;37.97;34.37;;;;;;;20.87;43.89;95449.97;6111795;28;108896;-63
2023/05/14 00:38:42;;;;;;;38.50;34.80;;;;;;;20.96;43.81;95468.72;6100765;28;109224;-63
2023/05/14 00:41:47;;;;;;;36.67;33.57;;;;;;;20.96;43.75;95467.94;6110931;28;109017;-63
2023/05/14 00:44:50;;;;;;;38.60;35.10;;;;;;;20.88;43.86;95450.75;6110835;28;108931;-63
2023/05/14 00:47:53;;;;;;;40.03;36.27;;;;;;;;;;6110606;28;109111;-63
2023/05/14 00:50:56;;;;;;;38.53;35.03;;;;;;;20.93;43.72;95458.66;6099881;28;108958;-65
2023/05/14 00:53:59;;;;;;;39.70;36.30;;;;;;;20.96;43.98;95465.25;6111299;28;108968;-63
2023/05/14 00:57:06;;;;;;;37.73;34.23;;;;;;;20.93;43.85;95454.13;6109142;28;108933;-63
2023/05/14 01:00:10;;;;;;;39.77;36.27;;;;;;;20.94;43.92;95457.56;6100768;28;108965;-63
2023/05/14 01:03:13;;;;;;;39.07;35.37;;;;;;;20.93;43.55;95451.47;6109725;28;108940;-63
2023/05/14 01:06:24;;;;;;;40.27;36.33;;;;;;;20.89;43.72;95455.78;6110984;28;109423;-63
2023/05/14 01:09:36;;;;;;;38.93;35.47;;;;;;;20.90;43.78;95446.72;6111745;28;109056;-63
2023/05/14 01:12:49;;;;;;;39.80;36.20;;;;;;;20.89;43.74;95447.81;6094451;28;109145;-63
2023/05/14 01:15:55;;;;;;;40.27;36.57;;;;;;;20.89;43.71;95447.81;6110257;28;108935;-63
2023/05/14 01:19:01;;;;;;;40.03;36.53;;;;;;;20.74;43.51;95410.78;6126169;28;108783;-64
2023/05/14 01:22:06;;;;;;;41.67;37.93;;;;;;;20.89;43.69;95449.69;6108768;28;109497;-63
2023/05/14 01:25:10;;;;;;;40.50;36.87;;;;;;;20.90;43.93;95459.22;6104163;28;110260;-63
2023/05/14 01:28:17;;;;;;;41.17;37.33;;;;;;;20.85;43.90;95457.44;6111495;28;110284;-63
2023/05/14 01:31:27;;;;;;;40.73;36.80;;;;;;;20.88;43.73;95472.03;6110550;28;109001;-63
2023/05/14 01:34:31;;;;;;;39.70;36.20;;;;;;;20.87;43.58;95479.22;6100956;28;108998;-64
2023/05/14 01:37:37;;;;;;;39.70;36.30;;;;;;;20.66;43.70;95434.56;6112048;28;109028;-63
2023/05/14 01:40:41;;;;;;;40.93;37.43;;;;;;;20.86;44.02;95468.88;6110256;28;108767;-64
2023/05/14 01:43:45;;;;;;;40.07;36.27;;;;;;;20.86;43.96;95474.97;6111477;28;108943;-63
2023/05/14 01:46:48;;;;;;;40.70;37.03;;;;;;;20.87;43.94;95478.44;6099840;28;108864;-63
2023/05/14 01:49:51;;;;;;;41.30;37.50;;;;;;;20.88;43.75;95480.81;6111791;28;108967;-64
2023/05/14 01:52:56;;;;;;;39.87;36.40;;;;;;;20.85;43.57;95473.41;6112884;28;108981;-63
2023/05/14 01:55:59;;;;;;;40.03;36.43;;;;;;;20.84;43.65;95468.38;6115545;28;108912;-63
2023/05/14 01:59:02;;;;;;;39.77;36.30;;;;;;;20.82;43.78;95473.94;6105550;28;108925;-63
2023/05/14 02:02:05;;;;;;;39.63;36.13;;;;;;;20.84;43.78;95482.47;6115422;28;109018;-63
2023/05/14 02:05:10;;;;;;;39.70;36.20;;;;;;;20.84;43.51;95481.66;6115367;28;108898;-63
2023/05/14 02:08:14;;;;;;;40.30;36.67;;;;;;;20.85;43.78;95483.25;6108824;28;108956;-63
2023/05/14 02:11:18;;;;;;;39.97;36.40;;;;;;;20.83;43.88;95483.50;6113801;28;108977;-63
2023/05/14 02:14:21;;;;;;;39.93;36.50;;;;;;;20.85;43.53;95484.03;6115665;28;108908;-63
2023/05/14 02:17:26;;;;;;;39.73;36.43;;;;;;;20.83;43.68;95491.50;6113600;28;109035;-64
2023/05/14 02:20:29;;;;;;;40.57;37.13;;;;;;;20.81;43.78;95480.34;6104301;28;108921;-63
2023/05/14 02:23:33;;;;;;;40.67;36.97;;;;;;;20.83;43.77;95480.84;6115443;28;108965;-65
2023/05/14 02:26:44;;;;;;;37.27;34.07;;;;;;;20.81;43.46;95484.88;6115434;28;108794;-63
2023/05/14 02:29:49;;;;;;;39.17;35.70;;;;;;;20.82;43.48;95486.47;6115463;28;108966;-72
2023/05/14 02:32:52;;;;;;;39.50;36.20;;;;;;;20.79;43.80;95490.50;6104132;28;109108;-73
2023/05/14 02:35:55;;;;;;;40.40;36.70;;;;;;;20.80;43.41;95499.25;6114700;28;109740;-73
2023/05/14 02:39:00;;;;;;;40.30;36.83;;;;;;;20.79;43.57;95490.50;6115305;28;108978;-73
2023/05/14 02:42:04;;;;;;;38.97;35.57;;;;;;;20.81;43.90;95496.31;6109715;28;108998;-68
2023/05/14 02:45:07;;;;;;;37.57;34.30;;;;;;;20.81;43.60;95508.81;6100144;28;108979;-72
2023/05/14 02:48:10;;;;;;;39.30;36.00;;;;;;;20.78;43.68;95512.06;6105926;28;108976;-72
2023/05/14 02:51:15;;;;;;;38.73;35.43;;;;;;;20.48;43.74;95468.00;6130210;28;109008;-72
2023/05/14 02:54:19;;;;;;;39.17;35.67;;;;;;;20.78;43.64;95510.19;6099211;28;110442;-72
2023/05/14 02:57:22;;;;;;;40.17;36.67;;;;;;;20.78;43.73;95512.84;6114124;28;108900;-73
2023/05/14 03:00:25;;;;;;;39.47;36.00;;;;;;;20.77;43.76;95503.28;6113725;28;109033;-72
2023/05/14 03:03:29;;;;;;;41.33;37.40;;;;;;;20.76;43.39;95509.69;6113097;28;110355;-73
2023/05/14 03:06:33;;;;;;;38.80;35.40;;;;;;;20.77;43.55;95513.94;6103489;28;108953;-73
2023/05/14 03:09:37;;;;;;;38.00;34.50;;;;;;;20.76;43.30;95509.69;6114175;28;108936;-72
2023/05/14 03:12:40;;;;;;;36.97;33.63;;;;;;;20.77;43.43;95508.59;6114342;28;108912;-73
2023/05/14 03:15:44;;;;;;;36.40;33.27;;;;;;;20.65;43.43;95478.97;6111561;28;109664;-72
2023/05/14 03:18:47;;;;;;;37.33;33.97;;;;;;;20.75;43.38;95489.47;6103182;28;108892;-73
2023/05/14 03:21:50;;;;;;;36.23;33.17;;;;;;;20.72;43.70;95473.31;6091444;28;108995;-72
2023/05/14 03:24:55;;;;;;;34.20;31.10;;;;;;;20.74;43.39;95473.81;6114123;28;108937;-72
2023/05/14 03:27:58;;;;;;;35.07;31.87;;;;;;;20.74;43.35;95484.44;6103130;28;109016;-72
2023/05/14 03:31:01;;;;;;;34.83;31.93;;;;;;;20.74;43.43;95495.09;6113454;28;109042;-72
2023/05/14 03:34:04;;;;;;;36.23;33.03;;;;;;;20.72;43.32;95484.75;6113355;28;108896;-72
2023/05/14 03:37:07;;;;;;;37.43;34.27;;;;;;;20.73;43.43;95496.16;6113741;28;109095;-62
2023/05/14 03:40:12;;;;;;;34.23;31.40;;;;;;;20.75;43.26;95508.09;6104684;28;108978;-62
2023/05/14 03:43:16;;;;;;;34.87;31.87;;;;;;;20.75;43.44;95516.09;6113881;28;108952;-62
2023/05/14 03:46:19;;;;;;;34.27;31.17;;;;;;;20.51;43.25;95481.56;6113395;28;108909;-62
2023/05/14 03:49:22;;;;;;;40.40;34.17;;;;;;;20.72;43.58;95500.69;6107556;28;108887;-62
2023/05/14 03:52:25;;;;;;;39.10;31.03;;;;;;;20.73;43.54;95499.63;6092657;28;108881;-63
2023/05/14 03:55:30;;;;;;;34.63;31.03;;;;;;;20.71;43.27;95499.13;6103435;28;108870;-63
2023/05/14 03:58:33;;;;;;;32.43;29.47;;;;;;;20.72;43.42;95503.34;6112526;28;108995;-63
2023/05/14 04:01:36;;;;;;;32.73;29.73;;;;;;;20.70;43.47;95505.50;6099244;28;109175;-64
2023/05/14 04:04:39;;;;;;;32.67;29.77;;;;;;;20.67;43.59;95495.44;6108765;28;111219;-63
2023/05/14 04:07:44;;;;;;;31.20;28.43;;;;;;;20.53;43.59;95470.63;6112901;28;109167;-62
2023/05/14 04:10:49;;;;;;;30.13;27.43;;;;;;;20.71;43.55;95506.31;6113338;28;108949;-63
2023/05/14 04:13:52;;;;;;;33.10;29.67;;;;;;;20.71;43.57;95512.41;6102525;28;108868;-63
2023/05/14 04:16:55;;;;;;;32.77;29.60;;;;;;;20.70;43.50;95510.84;6107397;28;108821;-63
2023/05/14 04:19:58;;;;;;;31.73;28.67;;;;;;;20.71;43.53;95511.63;6111839;28;108936;-63
2023/05/14 04:23:01;;;;;;;30.47;27.50;;;;;;;20.69;43.33;95514.56;6113644;28;108961;-62
2023/05/14 04:26:06;;;;;;;29.87;26.97;;;;;;;20.68;43.32;95518.31;6102766;28;109566;-63
2023/05/14 04:29:09;;;;;;;31.00;27.73;;;;;;;20.68;43.36;95520.19;6112749;28;109049;-62
2023/05/14 04:32:12;;;;;;;30.13;27.10;;;;;;;20.66;43.47;95525.75;6112965;28;108936;-62
2023/05/14 04:35:16;;;;;;;30.53;27.73;;;;;;;20.66;43.56;95532.94;6110173;28;108845;-63
2023/05/14 04:38:19;;;;;;;29.13;26.43;;;;;;;20.66;43.42;95540.91;6105325;28;108974;-63
2023/05/14 04:41:23;;;;;;;28.03;25.53;;;;;;;20.64;43.53;95541.19;6112708;28;108953;-62
2023/05/14 04:44:26;;;;;;;27.20;24.77;;;;;;;20.67;43.60;95553.97;6112880;28;109057;-63
2023/05/14 04:47:29;;;;;;;29.53;26.70;;;;;;;20.66;43.63;95539.03;6102694;28;108976;-72
2023/05/14 04:50:33;;;;;;;28.17;25.53;;;;;;;20.64;43.43;95549.19;6111348;28;108982;-72
2023/05/14 04:53:36;;;;;;;28.03;25.43;;;;;;;20.66;43.45;95551.56;6112328;28;108882;-73
2023/05/14 04:56:40;;;;;;;27.47;25.07;;;;;;;20.66;43.57;95557.66;6112072;28;108889;-74
2023/05/14 04:59:43;;;;;;;26.80;24.30;;;;;;;20.65;43.64;95561.41;6102095;28;108883;-68
2023/05/14 05:02:47;;;;;;;27.93;25.17;;;;;;;20.65;43.45;95561.41;6111558;28;108863;-73
2023/05/14 05:05:50;;;;;;;27.43;24.87;;;;;;;20.68;43.44;95573.38;6112633;28;109002;-74
2023/05/14 05:08:53;;;;;;;28.40;25.40;;;;;;;20.71;43.11;95576.25;6111984;28;108961;-73
2023/05/14 05:11:58;;;;;;;31.23;23.20;;;;;;;20.73;43.33;95583.94;6101553;28;108889;-74
2023/05/14 05:15:01;;;;;;;34.30;22.83;;;;;;;20.73;44.12;95589.25;6112266;28;109020;-73
2023/05/14 05:18:05;;;;;;;35.13;24.43;;;;;;;20.73;43.96;95594.56;6109303;28;108890;-74
2023/05/14 05:21:08;;;;;;;26.90;23.23;;;;;;;20.71;44.11;95604.69;6106643;28;108867;-73
2023/05/14 05:24:12;;;;;;;40.30;23.80;;;;;;;20.58;44.43;95587.53;6106820;28;109074;-73
2023/05/14 05:27:17;;;;;;;35.77;21.70;;;;;;;20.62;44.87;95599.19;6113843;28;108861;-74
2023/05/14 05:30:20;;;;;;;32.10;22.10;;;;;;;20.72;44.25;95625.69;6115997;28;108881;-73
2023/05/14 05:33:23;;;;;;;48.67;22.53;;;;;;;20.65;44.57;95608.47;6105847;28;109110;-75
2023/05/14 05:36:27;;;;;;;41.57;21.53;;;;;;;20.71;44.58;95618.78;6117245;28;109142;-74
2023/05/14 05:39:33;;;;;;;33.43;22.40;;;;;;;20.70;44.64;95622.53;6115835;28;108971;-74
2023/05/14 05:42:38;;;;;;;26.77;20.90;;;;;;;20.72;44.83;95628.34;6116398;28;108797;-73
2023/05/14 05:45:41;;;;;;;31.83;20.73;;;;;;;20.71;44.57;95626.78;6105069;28;108893;-73
2023/05/14 05:48:45;;;;;;;26.67;20.37;;;;;;;20.73;44.75;95624.63;6115846;28;108885;-73
2023/05/14 05:51:48;;;;;;;30.27;19.13;;;;;;;20.72;44.21;95631.00;6138440;28;108925;-73
2023/05/14 05:54:51;;;;;;;22.77;19.20;;;;;;;20.72;44.23;95631.00;6128757;28;108859;-68
2023/05/14 05:57:55;;;;;;;27.00;16.70;;;;;;;20.72;44.52;95635.53;6113085;28;108901;-61
2023/05/14 06:00:59;;;;;;;22.50;17.70;;;;;;;20.72;44.44;95627.56;6115535;28;109119;-61
2023/05/14 06:04:03;;;;;;;25.17;17.97;;;;;;;20.53;44.54;95608.88;6115673;28;108937;-61
2023/05/14 06:07:06;;;;;;;23.97;18.13;;;;;;;20.69;44.86;95628.13;6105249;28;109246;-61
2023/05/14 06:10:09;;;;;;;28.20;17.23;;;;;;;20.72;44.62;95611.59;6114276;28;109182;-61
2023/05/14 06:13:13;;;;;;;30.70;17.80;;;;;;;20.73;44.60;95615.84;6114588;28;108931;-61
2023/05/14 06:16:17;;;;;;;23.93;16.57;;;;;;;20.69;44.83;95617.50;6113518;28;109024;-61
2023/05/14 06:19:20;;;;;;;33.57;15.90;;;;;;;20.73;44.55;95626.47;6104740;28;109200;-60
2023/05/14 06:22:23;;;;;;;37.33;16.07;;;;;;;20.72;44.65;95623.03;6114712;28;109002;-61
2023/05/14 06:25:26;;;;;;;65.37;17.60;;;;;;;20.46;44.38;95585.25;6114311;28;108930;-73
2023/05/14 06:28:31;;;;;;;80.60;17.83;;;;;;;20.60;44.44;95596.03;6113380;28;109145;-72
2023/05/14 06:31:37;;;;;;;65.23;16.50;;;;;;;20.66;45.13;95610.84;6104183;28;108910;-67
2023/05/14 06:34:40;;;;;;;50.57;15.40;;;;;;;20.68;44.49;95614.03;6115475;28;108939;-68
2023/05/14 06:37:43;;;;;;;54.57;17.40;;;;;;;20.66;44.59;95629.47;6109214;28;108920;-67
2023/05/14 06:40:46;;;;;;;42.10;15.20;;;;;;;20.63;44.68;95627.38;6098790;28;109856;-67
2023/05/14 06:43:50;;;;;;;46.23;15.63;;;;;;;20.65;44.58;95645.69;6107878;28;108951;-67
2023/05/14 06:46:53;;;;;;;47.77;15.40;;;;;;;20.61;44.38;95627.66;6115477;28;108911;-67
2023/05/14 06:49:57;;;;;;;34.37;14.67;;;;;;;20.59;44.48;95619.16;6092860;28;108851;-67
2023/05/14 06:53:00;;;;;;;34.70;14.40;;;;;;;20.38;44.36;95583.22;6094012;28;108860;-69
2023/05/14 06:56:03;;;;;;;37.10;14.90;;;;;;;20.58;44.26;95603.50;6115220;28;108899;-68
2023/05/14 06:59:08;;;;;;;44.40;13.80;;;;;;;20.58;44.40;95592.88;6100889;28;108910;-68
2023/05/14 07:02:12;;;;;;;26.17;13.50;;;;;;;20.58;44.40;95598.19;6114415;28;108920;-67
2023/05/14 07:05:15;;;;;;;33.40;14.73;;;;;;;20.55;44.50;95583.59;6104730;28;109169;-66
2023/05/14 07:08:18;;;;;;;35.27;12.90;;;;;;;20.55;44.30;95596.88;6105452;28;109055;-59
2023/05/14 07:11:21;;;;;;;26.60;13.50;;;;;;;20.55;44.46;95602.19;6115265;28;108916;-59
2023/05/14 07:14:26;;;;;;;33.70;13.30;;;;;;;20.57;44.16;95601.91;6110231;28;108902;-57
2023/05/14 07:17:29;;;;;;;34.93;13.27;;;;;;;20.55;44.37;95598.75;6109326;28;109217;-57
2023/05/14 07:20:32;;;;;;;26.00;12.40;;;;;;;20.53;44.52;95606.22;6113970;28;109445;-57
2023/05/14 07:23:37;;;;;;;21.27;12.80;;;;;;;20.54;44.29;95634.38;6113552;28;108980;-57
2023/05/14 07:26:40;;;;;;;24.27;13.23;;;;;;;20.54;44.04;95656.44;6107495;28;109168;-57
2023/05/14 07:29:45;;;;;;;25.80;12.30;;;;;;;20.54;44.14;95645.03;6113781;28;108968;-58
2023/05/14 07:32:48;;;;;;;28.20;12.47;;;;;;;20.53;44.19;95638.13;6114349;28;108922;-57
2023/05/14 07:35:51;;;;;;;19.30;11.40;;;;;;;20.52;44.31;95637.34;6113990;28;108908;-58
2023/05/14 07:38:55;;;;;;;25.87;12.43;;;;;;;20.52;44.14;95636.53;6103154;28;109074;-57
2023/05/14 07:41:58;;;;;;;29.73;11.47;;;;;;;20.51;44.34;95626.97;6114026;28;108878;-57
2023/05/14 07:45:02;;;;;;;21.70;10.93;;;;;;;20.50;43.85;95620.88;6113972;28;109005;-58
2023/05/14 07:48:05;;;;;;;17.43;10.80;;;;;;;20.52;43.95;95625.91;6113522;28;108851;-57
2023/05/14 07:51:09;;;;;;;23.90;11.47;;;;;;;20.50;43.98;95636.00;6103200;28;108861;-57
2023/05/14 07:54:12;;;;;;;18.43;10.80;;;;;;;20.46;44.00;95632.31;6113182;28;108898;-57
2023/05/14 07:57:15;;;;;;;19.83;11.10;;;;;;;20.47;44.10;95640.00;6114039;28;108840;-57
2023/05/14 08:00:20;;;;;;;22.83;11.00;;;;;;;20.47;44.24;95655.19;6108140;28;108894;-57
2023/05/14 08:03:23;;;;;;;18.43;10.57;;;;;;;20.47;44.08;95660.50;6110085;28;109280;-58
2023/05/14 08:06:28;;;;;;;17.97;10.50;;;;;;;20.45;43.90;95658.13;6112825;28;108899;-57
2023/05/14 08:09:31;;;;;;;20.90;11.03;;;;;;;20.38;44.14;95635.59;6107024;28;108963;-59
2023/05/14 08:12:34;;;;;;;19.50;10.70;;;;;;;20.48;44.06;95638.16;6100560;28;109793;-59
2023/05/14 08:15:39;;;;;;;64.80;14.70;;;;;;;20.32;44.77;95627.66;6112535;28;108954;-63
2023/05/14 08:18:42;;;;;;;41.53;12.83;;;;;;;20.38;44.38;95632.94;6109065;28;109006;-70
2023/05/14 08:21:45;;;;;;;46.70;11.97;;;;;;;20.40;44.58;95633.47;6112654;28;108896;-69
2023/05/14 08:24:48;;;;;;;43.37;13.33;;;;;;;20.39;45.19;95631.88;6101699;28;108825;-68
2023/05/14 08:27:52;;;;;;;25.77;11.50;;;;;;;20.37;44.86;95615.41;6110142;28;108951;-68
2023/05/14 08:30:57;;;;;;;36.63;13.37;;;;;;;20.47;44.68;95616.09;6111789;28;109018;-69
2023/05/14 08:34:00;;;;;;;34.30;16.00;;;;;;;20.41;45.01;95603.16;6105535;28;109303;-70
2023/05/14 08:37:04;;;;;;;28.37;11.90;;;;;;;20.48;44.70;95612.34;6105208;28;108904;-71
2023/05/14 08:40:08;;;;;;;20.73;9.10;;;;;;;20.48;44.30;95607.03;6110249;28;108946;-71
2023/05/14 08:43:14;;;;;;;32.93;13.80;;;;;;;20.48;44.63;95606.25;6112118;28;108949;-71
2023/05/14 08:46:23;;;;;;;23.23;8.03;;;;;;;20.46;44.13;95601.22;6102205;28;108896;-70
2023/05/14 08:49:39;;;;;;;21.00;8.87;;;;;;;20.47;46.48;95594.81;6111990;28;108924;-69
2023/05/14 08:52:42;;;;;;;31.17;10.23;;;;;;;20.54;47.17;95595.31;6112211;28;108951;-72
2023/05/14 08:55:46;;;;;;;41.60;14.90;;;;;;;20.58;48.02;95598.19;6110766;28;108936;-68
2023/05/14 08:58:49;;;;;;;45.47;14.60;;;;;;;20.59;47.59;95594.44;6100099;28;109403;-70
2023/05/14 09:01:54;;;;;;;53.07;14.97;;;;;;;20.62;47.58;95588.56;6111199;28;108930;-72
2023/05/14 09:04:59;;;;;;;34.97;12.07;;;;;;;20.62;47.10;95588.56;6111809;28;108935;-70
2023/05/14 09:08:02;;;;;;;34.10;11.00;;;;;;;20.63;47.66;95582.16;6101598;28;109079;-69
2023/05/14 09:11:05;;;;;;;26.60;11.53;;;;;;;20.59;46.28;95589.13;6102749;28;109049;-69
2023/05/14 09:14:10;;;;;;;23.13;8.67;;;;;;;20.58;46.21;95590.22;6111558;28;108961;-69
2023/05/14 09:17:15;;;;;;;39.97;10.50;;;;;;;20.58;47.57;95584.88;6108732;28;108981;-70
2023/05/14 09:20:18;;;;;;;29.13;9.70;;;;;;;20.63;48.05;95579.50;6103157;28;108882;-70
2023/05/14 09:23:22;;;;;;;41.97;11.30;;;;;;;20.69;48.02;95601.53;6112176;28;109330;-69
2023/05/14 09:26:26;;;;;;;27.73;10.37;;;;;;;20.75;48.29;95601.19;6112609;28;108929;-69
2023/05/14 09:29:29;;;;;;;19.67;8.20;;;;;;;20.79;48.34;95606.72;6111909;28;108907;-64
2023/05/14 09:32:54;;;;;;;22.60;8.40;;;;;;;20.81;48.40;95592.06;6101608;28;108871;-65
2023/05/14 09:36:05;;;;;;;25.10;8.20;;;;;;;20.79;48.66;95570.28;6098547;28;108913;-64
2023/05/14 09:39:23;;;;;;;22.30;8.20;;;;;;;20.76;49.44;95578.84;6112103;28;109076;-60
2023/05/14 09:42:41;;;;;;;17.97;8.10;;;;;;;20.75;49.70;95593.22;6101207;28;109080;-62
2023/05/14 09:45:44;;;;;;;14.23;7.60;;;;;;;20.77;50.11;95588.41;6111494;28;108980;-61
2023/05/14 09:48:49;;;;;;;14.57;6.93;;;;;;;20.72;50.29;95558.41;6111728;28;109014;-61
2023/05/14 09:51:52;;;;;;;21.00;6.77;;;;;;;20.74;49.97;95557.06;6111926;28;109212;-61
2023/05/14 09:54:55;;;;;;;10.60;6.77;;;;;;;20.74;50.76;95557.06;6100650;28;109160;-61
2023/05/14 09:57:58;;;;;;;11.73;7.00;;;;;;;20.75;50.49;95561.28;6110758;28;108777;-62
2023/05/14 10:01:02;;;;;;;12.67;7.30;;;;;;;20.74;50.59;95561.59;6111622;28;108984;-61
2023/05/14 10:04:09;;;;;;;11.03;6.77;;;;;;;20.74;50.12;95558.91;6123140;28;108932;-62
2023/05/14 10:07:12;;;;;;;11.63;5.77;;;;;;;20.67;49.01;95540.66;6113303;28;109223;-61
2023/05/14 10:10:18;;;;;;;21.23;6.90;;;;;;;20.65;48.91;95545.44;6110345;28;109044;-61
2023/05/14 10:13:27;;;;;;;12.43;5.23;;;;;;;20.60;47.32;95534.88;6110998;28;109409;-61
2023/05/14 10:16:33;;;;;;;13.47;4.90;;;;;;;20.51;45.88;95533.94;6109498;28;108794;-62
2023/05/14 10:19:39;;;;;;;10.77;4.57;;;;;;;20.32;45.97;95515.25;6116112;28;109105;-61
2023/05/14 10:22:42;;;;;;;4.73;4.10;;;;;;;20.40;45.55;95517.28;6113137;28;109075;-61
2023/05/14 10:25:46;;;;;;;6.87;3.83;;;;;;;20.39;45.65;95510.41;6113664;28;109019;-61
2023/05/14 10:28:49;;;;;;;10.00;4.00;;;;;;;20.33;45.46;95511.50;6102016;28;109246;-61
2023/05/14 10:31:54;;;;;;;4.33;3.93;;;;;;;20.35;45.41;95529.84;6115115;28;109009;-60
2023/05/14 10:35:01;;;;;;;8.37;4.40;;;;;;;20.18;45.18;95517.78;6114262;28;108897;-61
2023/05/14 10:38:08;;;;;;;5.43;3.73;;;;;;;20.27;45.14;95547.19;6113447;28;110107;-62
2023/05/14 10:41:14;;;;;;;6.13;4.23;;;;;;;20.27;45.24;95526.72;6101579;28;109233;-61
2023/05/14 10:44:17;;;;;;;4.63;4.00;;;;;;;20.23;45.04;95531.00;6114503;28;108883;-61
2023/05/14 10:47:21;;;;;;;4.67;3.30;;;;;;;20.16;45.12;95509.25;6129179;28;109022;-61
2023/05/14 10:50:26;;;;;;;3.90;3.60;;;;;;;20.20;45.32;95523.59;6118815;28;108898;-61
2023/05/14 10:53:34;;;;;;;5.93;3.63;;;;;;;20.22;45.12;95531.28;6107985;28;109437;-61
2023/05/14 10:56:37;;;;;;;4.77;3.70;;;;;;;20.20;45.09;95522.81;6098712;28;108996;-61
2023/05/14 10:59:42;;;;;;;3.80;3.40;;;;;;;20.18;45.24;95524.94;6112974;28;108869;-61
2023/05/14 11:02:45;;;;;;;3.50;3.13;;;;;;;20.17;45.04;95507.41;6101784;28;109775;-62
2023/05/14 11:05:50;;;;;;;12.10;4.67;;;;;;;20.19;47.02;95510.59;6111068;28;109445;-61
2023/05/14 11:08:54;;;;;;;4.00;3.40;;;;;;;20.22;45.96;95510.03;6111778;28;109131;-61
2023/05/14 11:11:57;;;;;;;5.50;3.53;;;;;;;20.23;45.61;95506.28;6090892;28;108951;-61
2023/05/14 11:15:03;;;;;;;5.00;3.53;;;;;;;20.21;44.92;95509.22;6101067;28;108910;-61
2023/05/14 11:18:06;;;;;;;4.40;4.10;;;;;;;20.19;44.87;95515.91;6128056;28;109146;-61
2023/05/14 11:21:11;;;;;;;4.07;3.70;;;;;;;20.14;45.12;95519.38;6104417;28;108945;-61
2023/05/14 11:24:14;;;;;;;3.40;3.10;;;;;;;20.12;45.09;95521.53;6110342;28;109082;-62
2023/05/14 11:27:17;;;;;;;4.50;4.10;;;;;;;20.16;45.14;95521.75;6106296;28;110359;-61
2023/05/14 11:30:21;;;;;;;43.77;9.03;;;;;;;20.30;47.85;95515.53;6113117;28;108912;-60
2023/05/14 11:33:27;;;;;;;22.63;6.80;;;;;;;20.44;48.20;95514.84;6110534;28;108933;-60
2023/05/14 11:36:31;;;;;;;21.27;6.53;;;;;;;21.32;46.54;95498.28;6100700;28;108891;-60
2023/05/14 11:39:36;;;;;;;15.23;4.80;;;;;;;22.28;43.94;95495.91;6110501;28;108958;-60
2023/05/14 11:42:39;;;;;;;17.87;5.10;;;;;;;22.73;43.69;95519.34;6112863;28;110534;-60
2023/05/14 11:45:42;;;;;;;15.27;4.90;;;;;;;23.03;42.72;95510.72;6107928;28;108913;-60
2023/05/14 11:48:47;;;;;;;10.07;3.73;;;;;;;23.23;42.43;95494.25;6101519;28;108908;-62
2023/05/14 11:51:57;;;;;;;10.60;4.60;;;;;;;23.47;42.02;95493.97;6113815;28;108891;-62
2023/05/14 11:55:00;;;;;;;9.40;3.97;;;;;;;23.83;41.79;95495.78;6113280;28;108896;-63
2023/05/14 11:58:03;;;;;;;8.77;3.83;;;;;;;24.17;41.35;95490.66;6113975;28;108953;-63
2023/05/14 12:01:06;;;;;;;8.70;3.80;;;;;;;24.44;40.82;95489.66;6101643;28;108900;-62
2023/05/14 12:04:09;;;;;;;9.33;4.20;;;;;;;24.69;40.53;95485.50;6111787;28;108944;-62
2023/05/14 12:07:16;;;;;;;9.07;3.90;;;;;;;24.79;40.49;95484.44;6114001;28;108839;-62
2023/05/14 12:10:19;;;;;;;9.57;4.37;;;;;;;25.00;40.10;95488.09;6106736;28;109011;-62
2023/05/14 12:13:25;;;;;;;6.60;4.27;;;;;;;25.15;40.00;95475.34;6110182;28;108939;-62
2023/05/14 12:16:31;;;;;;;6.30;3.70;;;;;;;25.22;40.10;95473.00;6113424;28;108812;-62
2023/05/14 12:19:40;;;;;;;6.13;4.90;;;;;;;25.21;40.29;95455.38;6114381;28;108947;-62
2023/05/14 12:22:45;;;;;;;7.20;4.20;;;;;;;25.16;40.06;95455.50;6103787;28;109980;-62
2023/05/14 12:25:51;;;;;;;6.43;4.43;;;;;;;25.25;40.45;95449.03;6118925;28;110053;-62
2023/05/14 12:28:59;;;;;;;5.77;4.50;;;;;;;25.20;40.60;95443.81;6115576;28;108968;-62
2023/05/14 12:32:04;;;;;;;7.00;4.90;;;;;;;25.29;40.46;95433.13;6111939;28;108900;-62
2023/05/14 12:35:08;;;;;;;6.10;5.60;;;;;;;25.12;40.31;95407.13;6102621;28;108922;-62
2023/05/14 12:38:13;;;;;;;6.50;5.90;;;;;;;25.27;40.55;95429.97;6111929;28;108857;-62
2023/05/14 12:41:16;;;;;;;7.77;5.97;;;;;;;25.36;40.62;95433.44;6110888;28;109134;-59
2023/05/14 12:44:21;;;;;;;8.43;6.40;;;;;;;25.37;40.27;95416.28;6108091;28;108837;-59
2023/05/14 12:47:24;;;;;;;7.40;6.80;;;;;;;25.44;40.42;95423.84;6090949;28;109006;-59
2023/05/14 12:50:27;;;;;;;8.03;7.23;;;;;;;25.37;40.41;95424.31;6098288;28;108986;-59
2023/05/14 12:53:32;;;;;;;9.03;8.23;;;;;;;25.30;40.96;95414.06;6113148;28;108823;-59
2023/05/14 12:56:36;;;;;;;9.03;8.23;;;;;;;25.23;40.95;95411.06;6101823;28;108897;-59
2023/05/14 12:59:39;;;;;;;10.50;9.60;;;;;;;25.22;40.66;95420.22;6112729;28;108849;-63
2023/05/14 13:02:42;;;;;;;12.20;11.30;;;;;;;25.31;40.80;95420.19;6110947;28;108969;-62
2023/05/14 13:05:46;;;;;;;37.13;34.67;;;;;;;25.24;41.48;95409.97;6111699;28;108904;-66
2023/05/14 13:08:50;;;;;;;253.23;237.47;;;;;;;25.05;43.36;95423.69;6100650;28;108888;-63
2023/05/14 13:11:53;;;;;;;290.30;272.60;;;;;;;25.09;43.48;95419.28;6096859;28;108893;-63
2023/05/14 13:14:56;;;;;;;281.87;264.63;;;;;;;25.21;43.06;95415.97;6112477;28;108950;-61
2023/05/14 13:17:59;;;;;;;261.73;246.20;;;;;;;25.17;43.07;95406.19;6107920;28;108889;-61
2023/05/14 13:21:05;;;;;;;249.90;235.10;;;;;;;25.20;43.03;95405.53;6106820;28;108931;-61
2023/05/14 13:24:09;;;;;;;236.10;221.67;;;;;;;25.21;42.89;95394.53;6112690;28;108832;-61
2023/05/14 13:27:13;;;;;;;221.83;208.83;;;;;;;25.11;42.85;95402.09;6111204;28;108873;-61
2023/05/14 13:30:16;;;;;;;213.53;200.53;;;;;;;25.06;42.68;95401.16;6102018;28;108916;-62
2023/05/14 13:33:19;;;;;;;191.80;179.47;;;;;;;25.03;42.86;95414.38;6104871;28;108816;-62
2023/05/14 13:36:22;;;;;;;175.20;164.60;;;;;;;25.02;42.75;95402.09;6111361;28;108992;-61
2023/05/14 13:39:27;;;;;;;140.77;132.00;;;;;;;25.13;42.17;95386.50;6112450;28;108861;-62
2023/05/14 13:42:30;;;;;;;131.53;123.40;;;;;;;25.06;41.91;95382.41;6100959;28;109178;-61
2023/05/14 13:45:33;;;;;;;124.00;115.43;;;;;;;24.71;42.15;95380.84;6099996;28;108971;-64
2023/05/14 13:48:36;;;;;;;100.60;92.87;;;;;;;23.76;44.10;95389.34;6106633;28;108905;-64
2023/05/14 13:51:39;;;;;;;54.33;50.17;;;;;;;23.30;43.65;95377.16;6115112;28;108865;-65
2023/05/14 13:54:43;;;;;;;45.37;41.67;;;;;;;22.99;43.63;95371.72;6104395;28;108968;-65
2023/05/14 13:57:46;;;;;;;42.77;39.77;;;;;;;22.84;43.51;95376.63;6115004;28;109046;-66
2023/05/14 14:00:50;;;;;;;40.93;37.73;;;;;;;22.63;43.62;95389.63;6115444;28;109142;-65